ETNG

Geilenkirchen Airport

Germany
METAR ETNG 191950Z 24004KT 9999 BKN037 20/16 Q1024
Observed Flight Rules
Jun-19 @ 19:50 UTC (25 minutes ago) Visual Flight Rules
Wind Visibility Clouds
240° at 4 knots 10,000+ meters
  • Broken at 3,700' AGL
Temperatures Readings
Current 20°C / 68°F
Dewpoint 16°C / 61°F
Humidity 78%
Altimeter 30.24" Hg
Pressure 1024 hPa
Elevation 98
METAR ETNG 191950Z 24004KT 9999 BKN037 20/16 Q1024
Observed Flight Rules
Jun-19 @ 19:50 UTC
(25 minutes ago)
VFR
Wind Visibility
240° at 4 knots 10,000+ meters
Clouds
  • Broken at 3,700' AGL
Temperature Dewpoint
20°C / 68°F 16°C / 61°F
Humidity Altimeter Pressure
78% 30.24" Hg 1024 hPa